Flight Track Log - Related Links

Times and Time Zones

All times are in EDT time to prevent confusion due to time zone crossing. See the ASQ5685 flight status page for this flight to view local times or setup timezone preferences in your user account.

Time Position Orientation Groundspeed Altitude Reporting Facility
EDT Latitude Longitude Course Direction KTS MPH feet Rate Location/Type
Fri 09:46:41 33.6353 -84.3731 69° East 409 471 2,400  Level Atlanta Center
Fri 09:47:24 33.6333 -84.3167 92° East 254 292 3,300 2,037 Climbing Atlanta TRACON
Fri 09:48:30 33.6333 -84.2167 90° East 278 320 6,100 2,400 Climbing Atlanta TRACON
Fri 09:49:00 33.9518 -84.0529 53° Northeast  Level Estimated
Fri 09:49:24 33.6333 -84.1333 90° East 281 323 8,100  Level Atlanta TRACON
Fri 09:50:00 33.9924 -83.9286 68° East  Level FlightAware Approximate
Fri 09:50:41 33.6878 -84.0314 57° Northeast 307 353 10,500  Level Atlanta Center
Fri 09:51:00 34.0329 -83.8042 69° East  Level FlightAware Approximate
Fri 09:51:41 33.7483 -83.9514 48° Northeast 307 353 11,700  Level Atlanta Center
Fri 09:52:41 33.8067 -83.8789 46° Northeast 322 371 12,700 1,150 Climbing Atlanta Center
Fri 09:53:41 33.8753 -83.7886 48° Northeast 343 395 14,000 1,300 Climbing Atlanta Center
Fri 09:54:41 33.9442 -83.6933 49° Northeast 360 414 15,300 1,200 Climbing Atlanta Center
Fri 09:55:41 34.0083 -83.5903 53° Northeast 371 427 16,400 1,050 Climbing Atlanta Center
Fri 09:56:41 34.0747 -83.4869 52° Northeast 386 444 17,400 900 Climbing Atlanta Center
Fri 09:57:41 34.1411 -83.3836 52° Northeast 386 444 18,200 950 Climbing Atlanta Center
Fri 09:58:41 34.2050 -83.2753 54° Northeast 391 450 19,300 950 Climbing Atlanta Center
Fri 09:59:41 34.2753 -83.1689 51° Northeast 391 450 20,100 700 Climbing Atlanta Center
Fri 10:00:41 34.3475 -83.0525 53° Northeast 391 450 20,700 600 Climbing Atlanta Center
Fri 10:01:41 34.4156 -82.9408 54° Northeast 391 450 21,300 600 Climbing Atlanta Center
Fri 10:02:41 34.4792 -82.8317 55° Northeast 396 456 21,900 600 Climbing Atlanta Center
Fri 10:03:41 34.5489 -82.7222 52° Northeast 396 456 22,500 600 Climbing Atlanta Center
Fri 10:04:41 34.6186 -82.6153 52° Northeast 396 456 23,100 600 Climbing Atlanta Center
Fri 10:05:41 34.6822 -82.5106 54° Northeast 396 456 23,700 600 Climbing Atlanta Center
Fri 10:06:41 34.7494 -82.3981 54° Northeast 391 450 24,300 600 Climbing Atlanta Center
Fri 10:07:41 34.8128 -82.2906 54° Northeast 391 450 24,900 550 Climbing Atlanta Center
Fri 10:08:41 34.8800 -82.1828 53° Northeast 391 450 25,400 3,050 Climbing Atlanta Center
Fri 10:09:41 34.9433 -82.0878 51° Northeast 391 450 31,000 500 Climbing Atlanta Center
Fri 10:10:41 35.0103 -81.9797 53° Northeast 391 450 26,400 -2,000 Descending Atlanta Center
Fri 10:11:41 35.0708 -81.8614 58° Northeast 391 450 27,000 550 Climbing Atlanta Center
Fri 10:12:41 35.1314 -81.7456 57° Northeast 402 463 27,500 500 Climbing Atlanta Center
Fri 10:13:41 35.1919 -81.6319 57° Northeast 402 463 28,000 500 Climbing Atlanta Center
Fri 10:14:41 35.2542 -81.5131 57° Northeast 402 463 28,500 500 Climbing Atlanta Center
Fri 10:15:41 35.3203 -81.3864 57° Northeast 402 463 29,000 500 Climbing Atlanta Center
Fri 10:16:41 35.3781 -81.2675 59° Northeast 402 463 29,500 500 Climbing Atlanta Center
Fri 10:17:41 35.4400 -81.1481 57° Northeast 402 463 30,000 500 Climbing Atlanta Center
Fri 10:18:41 35.4958 -81.0389 58° Northeast 412 474 30,500 500 Climbing Atlanta Center
Fri 10:19:41 35.5578 -80.9219 57° Northeast 412 474 31,000 250 Climbing Atlanta Center
Fri 10:20:41 35.6253 -80.7967 56° Northeast 412 474 31,000  Level Atlanta Center
Fri 10:21:41 35.6889 -80.6739 57° Northeast 412 474 31,000  Level Atlanta Center
Fri 10:22:41 35.7522 -80.5511 58° Northeast 420 483 31,000  Level Atlanta Center
Fri 10:23:41 35.8172 -80.4253 57° Northeast 420 483 31,000  Level Atlanta Center
Fri 10:25:43 35.9431 -80.1717 58° Northeast 428 493 31,000  Level Washington Center
Fri 10:26:40 36.0036 -80.0647 55° Northeast 428 493 31,000  Level Washington Center
Fri 10:27:42 36.0686 -79.9425 57° Northeast 423 487 31,000  Level Washington Center
Fri 10:28:42 36.1400 -79.8178 55° Northeast 428 493 31,000 -756 Level Washington Center
Fri 10:29:41 36.2200 -79.6753 55° Northeast 451 519 29,500 -1,664 Descending Washington Center
Fri 10:30:41 36.2956 -79.5400 55° Northeast 470 541 27,700 -1,835 Descending Washington Center
Fri 10:31:42 36.3619 -79.4222 55° Northeast 475 547 25,800 -1,328 Descending Washington Center
Fri 10:32:43 36.4350 -79.2889 56° Northeast 475 547 25,000 -397 Descending Washington Center
Fri 10:33:43 36.5117 -79.1686 52° Northeast 470 541 25,000 -500 Level Washington Center
Fri 10:34:43 36.6244 -79.0908 29° Northeast 444 511 24,000 -508 Descending Washington Center
Fri 10:35:41 36.7431 -79.0314 22° Northeast 444 511 24,000  Level Washington Center
Fri 10:36:42 36.8367 -78.8931 50° Northeast 449 517 24,000  Level Washington Center
Fri 10:37:42 36.9192 -78.7717 50° Northeast 454 522 24,000  Level Washington Center
Fri 10:38:42 36.9975 -78.6475 52° Northeast 460 529 24,000  Level Washington Center
Fri 10:39:43 37.0733 -78.5361 50° Northeast 460 529 24,000  Level Washington Center
Fri 10:40:42 37.1556 -78.4089 51° Northeast 460 529 24,000  Level Washington Center
Fri 10:41:42 37.2378 -78.2842 50° Northeast 460 529 24,000  Level Washington Center
Fri 10:42:43 37.3178 -78.1614 51° Northeast 460 529 24,000 -454 Level Washington Center
Fri 10:43:41 37.3911 -78.0439 52° Northeast 448 516 23,100 -1,008 Descending Washington Center
Fri 10:44:42 37.4622 -77.9283 52° Northeast 435 501 22,000 -545 Descending Washington Center
Fri 10:45:42 37.5414 -77.8208 47° Northeast 425 489 22,000 -347 Level Washington Center
Fri 10:46:43 37.6617 -77.7508 25° Northeast 416 479 21,300 -1,300 Descending Washington Center
Fri 10:47:42 37.7544 -77.6983 24° Northeast 416 479 19,400 -1,966 Descending Washington Center
Fri 10:48:42 37.8514 -77.6378 26° Northeast 399 459 17,400 -2,083 Descending Washington Center
Fri 10:49:43 37.9481 -77.5825 24° Northeast 382 440 15,200 -2,118 Descending Washington Center
Fri 10:50:41 38.0428 -77.5322 23° Northeast 377 434 13,200 -2,017 Descending Washington Center
Fri 10:51:42 38.1314 -77.4767 26° Northeast 361 415 11,200 -1,587 Descending Washington Center
Fri 10:52:42 38.2072 -77.4336 24° Northeast 328 377 10,000 -1,190 Descending Washington Center
Fri 10:53:43 38.2842 -77.4381 357° North 280 322 8,800 -1,412 Descending Washington Center
Fri 10:54:41 38.3589 -77.4531 351° North 267 307 7,200 -1,563 Descending Washington Center
Fri 10:55:42 38.4297 -77.4681 351° North 267 307 5,700 -1,109 Descending Washington Center
Fri 10:56:40 38.5047 -77.4700 359° North 262 302 5,000 -353 Descending Washington Center
Fri 10:57:41 38.5756 -77.4692 North 257 296 5,000 -263 Level Washington Center
Fri 10:58:34 38.6500 -77.4667 North 259 298 4,500 -690 Descending Potomac TRACON
Fri 10:59:34 38.7167 -77.4667 360° North 254 292 3,700 -750 Descending Potomac TRACON
Fri 11:00:34 38.8000 -77.4667 360° North 252 290 3,000 -900 Descending Potomac TRACON
Fri 11:01:34 38.8500 -77.4667 360° North 215 247 1,900 -947 Descending Potomac TRACON
Fri 11:02:28 38.9000 -77.4667 360° North 153 176 1,200 -778 Descending Potomac TRACON

Login

Don't have an account? Register now (free) for customized features, flight alerts, and more!